sensor_id;sensor_type;location;lat;lon;timestamp;P1;durP1;ratioP1;P2;durP2;ratioP2
16484;SDS011;8353;47.856;12.344;2023-12-04T00:00:49;6.77;;;5.40;;
16484;SDS011;8353;47.856;12.344;2023-12-04T00:03:36;6.97;;;4.60;;
16484;SDS011;8353;47.856;12.344;2023-12-04T00:06:22;5.17;;;3.87;;
16484;SDS011;8353;47.856;12.344;2023-12-04T00:09:09;6.60;;;4.27;;
16484;SDS011;8353;47.856;12.344;2023-12-04T00:11:57;4.80;;;3.60;;
16484;SDS011;8353;47.856;12.344;2023-12-04T00:14:44;5.30;;;3.83;;
16484;SDS011;8353;47.856;12.344;2023-12-04T00:17:31;6.07;;;4.03;;
16484;SDS011;8353;47.856;12.344;2023-12-04T00:20:17;4.60;;;3.47;;
16484;SDS011;8353;47.856;12.344;2023-12-04T00:23:04;4.40;;;3.53;;
16484;SDS011;8353;47.856;12.344;2023-12-04T00:25:51;6.03;;;3.60;;
16484;SDS011;8353;47.856;12.344;2023-12-04T00:28:39;5.53;;;3.10;;
16484;SDS011;8353;47.856;12.344;2023-12-04T00:31:25;8.03;;;4.80;;
16484;SDS011;8353;47.856;12.344;2023-12-04T00:34:12;7.07;;;4.30;;
16484;SDS011;8353;47.856;12.344;2023-12-04T00:37:02;4.60;;;3.50;;
16484;SDS011;8353;47.856;12.344;2023-12-04T00:39:49;4.40;;;3.27;;
16484;SDS011;8353;47.856;12.344;2023-12-04T00:42:36;4.40;;;3.70;;
16484;SDS011;8353;47.856;12.344;2023-12-04T00:45:24;4.10;;;3.00;;
16484;SDS011;8353;47.856;12.344;2023-12-04T00:48:10;3.93;;;3.10;;
16484;SDS011;8353;47.856;12.344;2023-12-04T00:50:57;5.17;;;3.20;;
16484;SDS011;8353;47.856;12.344;2023-12-04T00:53:44;3.43;;;2.87;;
16484;SDS011;8353;47.856;12.344;2023-12-04T00:56:31;7.17;;;4.40;;
16484;SDS011;8353;47.856;12.344;2023-12-04T00:59:18;4.53;;;2.73;;
16484;SDS011;8353;47.856;12.344;2023-12-04T01:02:06;3.93;;;2.70;;
16484;SDS011;8353;47.856;12.344;2023-12-04T01:04:53;5.57;;;3.97;;
16484;SDS011;8353;47.856;12.344;2023-12-04T01:07:40;4.03;;;3.17;;
16484;SDS011;8353;47.856;12.344;2023-12-04T01:10:27;5.60;;;3.13;;
16484;SDS011;8353;47.856;12.344;2023-12-04T01:13:13;5.20;;;3.57;;
16484;SDS011;8353;47.856;12.344;2023-12-04T01:16:00;4.03;;;2.80;;
16484;SDS011;8353;47.856;12.344;2023-12-04T01:18:50;4.30;;;2.60;;
16484;SDS011;8353;47.856;12.344;2023-12-04T01:21:37;3.30;;;2.60;;
16484;SDS011;8353;47.856;12.344;2023-12-04T01:24:24;4.53;;;2.90;;
16484;SDS011;8353;47.856;12.344;2023-12-04T01:27:10;3.77;;;2.70;;
16484;SDS011;8353;47.856;12.344;2023-12-04T01:29:57;3.77;;;2.50;;
16484;SDS011;8353;47.856;12.344;2023-12-04T01:32:44;3.73;;;2.80;;
16484;SDS011;8353;47.856;12.344;2023-12-04T01:35:32;3.33;;;2.70;;
16484;SDS011;8353;47.856;12.344;2023-12-04T01:38:19;3.87;;;2.57;;
16484;SDS011;8353;47.856;12.344;2023-12-04T01:41:06;3.67;;;3.10;;
16484;SDS011;8353;47.856;12.344;2023-12-04T01:43:53;2.47;;;2.17;;
16484;SDS011;8353;47.856;12.344;2023-12-04T01:46:39;4.03;;;2.67;;
16484;SDS011;8353;47.856;12.344;2023-12-04T01:49:27;3.10;;;2.23;;
16484;SDS011;8353;47.856;12.344;2023-12-04T01:52:15;2.87;;;2.20;;
16484;SDS011;8353;47.856;12.344;2023-12-04T01:55:02;2.97;;;2.70;;
16484;SDS011;8353;47.856;12.344;2023-12-04T01:57:50;2.97;;;2.17;;
16484;SDS011;8353;47.856;12.344;2023-12-04T02:00:38;3.20;;;2.77;;
16484;SDS011;8353;47.856;12.344;2023-12-04T02:03:25;4.43;;;3.03;;
16484;SDS011;8353;47.856;12.344;2023-12-04T02:06:12;4.13;;;3.30;;
16484;SDS011;8353;47.856;12.344;2023-12-04T02:09:00;3.47;;;2.40;;
16484;SDS011;8353;47.856;12.344;2023-12-04T02:11:48;4.27;;;2.90;;
16484;SDS011;8353;47.856;12.344;2023-12-04T02:14:34;4.73;;;2.53;;
16484;SDS011;8353;47.856;12.344;2023-12-04T02:17:21;3.20;;;2.37;;
16484;SDS011;8353;47.856;12.344;2023-12-04T02:20:09;3.30;;;2.20;;
16484;SDS011;8353;47.856;12.344;2023-12-04T02:22:56;3.83;;;2.40;;
16484;SDS011;8353;47.856;12.344;2023-12-04T02:25:44;2.57;;;2.10;;
16484;SDS011;8353;47.856;12.344;2023-12-04T02:28:31;2.30;;;2.00;;
16484;SDS011;8353;47.856;12.344;2023-12-04T02:31:20;2.87;;;2.20;;
16484;SDS011;8353;47.856;12.344;2023-12-04T02:34:19;2.13;;;1.70;;
16484;SDS011;8353;47.856;12.344;2023-12-04T02:37:06;2.37;;;1.70;;
16484;SDS011;8353;47.856;12.344;2023-12-04T02:39:55;1.80;;;1.70;;
16484;SDS011;8353;47.856;12.344;2023-12-04T02:42:44;2.53;;;2.03;;
16484;SDS011;8353;47.856;12.344;2023-12-04T02:45:30;2.67;;;1.87;;
16484;SDS011;8353;47.856;12.344;2023-12-04T02:48:17;2.30;;;1.63;;
16484;SDS011;8353;47.856;12.344;2023-12-04T02:51:04;2.53;;;1.93;;
16484;SDS011;8353;47.856;12.344;2023-12-04T02:53:51;3.10;;;2.23;;
16484;SDS011;8353;47.856;12.344;2023-12-04T02:56:38;2.53;;;2.00;;
16484;SDS011;8353;47.856;12.344;2023-12-04T02:59:26;3.03;;;1.87;;
16484;SDS011;8353;47.856;12.344;2023-12-04T03:02:13;4.03;;;2.77;;
16484;SDS011;8353;47.856;12.344;2023-12-04T03:05:00;2.23;;;1.83;;
16484;SDS011;8353;47.856;12.344;2023-12-04T03:07:46;4.60;;;2.33;;
16484;SDS011;8353;47.856;12.344;2023-12-04T03:10:33;4.60;;;2.83;;
16484;SDS011;8353;47.856;12.344;2023-12-04T03:13:20;2.80;;;2.13;;
16484;SDS011;8353;47.856;12.344;2023-12-04T03:16:15;3.50;;;2.00;;
16484;SDS011;8353;47.856;12.344;2023-12-04T03:19:03;2.90;;;2.50;;
16484;SDS011;8353;47.856;12.344;2023-12-04T03:21:49;2.33;;;1.83;;
16484;SDS011;8353;47.856;12.344;2023-12-04T03:24:36;2.97;;;2.27;;
16484;SDS011;8353;47.856;12.344;2023-12-04T03:27:23;2.90;;;2.00;;
16484;SDS011;8353;47.856;12.344;2023-12-04T03:30:10;2.20;;;1.73;;
16484;SDS011;8353;47.856;12.344;2023-12-04T03:32:58;3.80;;;2.07;;
16484;SDS011;8353;47.856;12.344;2023-12-04T03:35:45;1.97;;;1.50;;
16484;SDS011;8353;47.856;12.344;2023-12-04T03:38:32;2.87;;;2.17;;
16484;SDS011;8353;47.856;12.344;2023-12-04T03:41:19;2.47;;;1.80;;
16484;SDS011;8353;47.856;12.344;2023-12-04T03:44:07;3.27;;;2.10;;
16484;SDS011;8353;47.856;12.344;2023-12-04T03:46:53;3.73;;;2.27;;
16484;SDS011;8353;47.856;12.344;2023-12-04T03:49:41;1.93;;;1.50;;
16484;SDS011;8353;47.856;12.344;2023-12-04T03:52:28;2.43;;;2.20;;
16484;SDS011;8353;47.856;12.344;2023-12-04T03:55:15;2.47;;;1.93;;
16484;SDS011;8353;47.856;12.344;2023-12-04T03:58:04;2.90;;;1.80;;
16484;SDS011;8353;47.856;12.344;2023-12-04T04:00:50;2.07;;;1.73;;
16484;SDS011;8353;47.856;12.344;2023-12-04T04:03:37;2.63;;;1.90;;
16484;SDS011;8353;47.856;12.344;2023-12-04T04:06:25;2.27;;;1.80;;
16484;SDS011;8353;47.856;12.344;2023-12-04T04:09:12;3.00;;;2.00;;
16484;SDS011;8353;47.856;12.344;2023-12-04T04:11:59;3.87;;;2.30;;
16484;SDS011;8353;47.856;12.344;2023-12-04T04:14:45;2.67;;;1.70;;
16484;SDS011;8353;47.856;12.344;2023-12-04T04:17:32;2.90;;;1.83;;
16484;SDS011;8353;47.856;12.344;2023-12-04T04:20:19;1.83;;;1.63;;
16484;SDS011;8353;47.856;12.344;2023-12-04T04:23:07;2.83;;;2.00;;
16484;SDS011;8353;47.856;12.344;2023-12-04T04:25:54;2.97;;;2.03;;
16484;SDS011;8353;47.856;12.344;2023-12-04T04:28:41;2.70;;;2.17;;
16484;SDS011;8353;47.856;12.344;2023-12-04T04:31:27;2.40;;;1.50;;
16484;SDS011;8353;47.856;12.344;2023-12-04T04:34:14;2.33;;;1.70;;
16484;SDS011;8353;47.856;12.344;2023-12-04T04:37:01;2.40;;;1.73;;
16484;SDS011;8353;47.856;12.344;2023-12-04T04:39:49;2.20;;;1.70;;
16484;SDS011;8353;47.856;12.344;2023-12-04T04:42:36;1.77;;;1.50;;
16484;SDS011;8353;47.856;12.344;2023-12-04T04:45:22;3.23;;;2.23;;
16484;SDS011;8353;47.856;12.344;2023-12-04T04:48:09;2.60;;;2.00;;
16484;SDS011;8353;47.856;12.344;2023-12-04T04:50:56;3.03;;;2.07;;
16484;SDS011;8353;47.856;12.344;2023-12-04T04:53:42;1.77;;;1.50;;
16484;SDS011;8353;47.856;12.344;2023-12-04T04:56:30;2.23;;;1.70;;
16484;SDS011;8353;47.856;12.344;2023-12-04T04:59:17;1.97;;;1.70;;
16484;SDS011;8353;47.856;12.344;2023-12-04T05:02:04;2.73;;;2.13;;
16484;SDS011;8353;47.856;12.344;2023-12-04T05:04:50;3.97;;;2.30;;
16484;SDS011;8353;47.856;12.344;2023-12-04T05:07:37;2.37;;;1.93;;
16484;SDS011;8353;47.856;12.344;2023-12-04T05:10:24;2.20;;;1.63;;
16484;SDS011;8353;47.856;12.344;2023-12-04T05:13:12;1.70;;;1.60;;
16484;SDS011;8353;47.856;12.344;2023-12-04T05:15:59;2.37;;;1.60;;
16484;SDS011;8353;47.856;12.344;2023-12-04T05:18:45;2.03;;;1.83;;
16484;SDS011;8353;47.856;12.344;2023-12-04T05:21:32;2.00;;;1.40;;
16484;SDS011;8353;47.856;12.344;2023-12-04T05:24:19;2.87;;;1.60;;
16484;SDS011;8353;47.856;12.344;2023-12-04T05:27:05;2.10;;;1.53;;
16484;SDS011;8353;47.856;12.344;2023-12-04T05:29:54;2.80;;;2.03;;
16484;SDS011;8353;47.856;12.344;2023-12-04T05:32:40;3.40;;;1.90;;
16484;SDS011;8353;47.856;12.344;2023-12-04T05:35:27;3.20;;;2.00;;
16484;SDS011;8353;47.856;12.344;2023-12-04T05:38:14;2.90;;;2.07;;
16484;SDS011;8353;47.856;12.344;2023-12-04T05:41:01;3.10;;;1.77;;
16484;SDS011;8353;47.856;12.344;2023-12-04T05:43:48;2.87;;;2.10;;
16484;SDS011;8353;47.856;12.344;2023-12-04T05:46:36;2.17;;;1.73;;
16484;SDS011;8353;47.856;12.344;2023-12-04T05:49:23;3.10;;;2.10;;
16484;SDS011;8353;47.856;12.344;2023-12-04T05:52:10;3.93;;;2.40;;
16484;SDS011;8353;47.856;12.344;2023-12-04T05:54:56;2.63;;;2.13;;
16484;SDS011;8353;47.856;12.344;2023-12-04T05:57:43;4.53;;;2.90;;
16484;SDS011;8353;47.856;12.344;2023-12-04T06:00:30;3.83;;;2.20;;
16484;SDS011;8353;47.856;12.344;2023-12-04T06:03:18;2.30;;;2.03;;
16484;SDS011;8353;47.856;12.344;2023-12-04T06:06:05;4.10;;;2.93;;
16484;SDS011;8353;47.856;12.344;2023-12-04T06:08:52;3.53;;;2.33;;
16484;SDS011;8353;47.856;12.344;2023-12-04T06:11:39;3.10;;;2.20;;
16484;SDS011;8353;47.856;12.344;2023-12-04T06:14:26;2.60;;;2.00;;
16484;SDS011;8353;47.856;12.344;2023-12-04T06:17:12;2.73;;;1.93;;
16484;SDS011;8353;47.856;12.344;2023-12-04T06:20:00;5.23;;;2.37;;
16484;SDS011;8353;47.856;12.344;2023-12-04T06:22:47;3.30;;;2.00;;
16484;SDS011;8353;47.856;12.344;2023-12-04T06:25:34;2.67;;;1.80;;
16484;SDS011;8353;47.856;12.344;2023-12-04T06:28:23;3.90;;;2.37;;
16484;SDS011;8353;47.856;12.344;2023-12-04T06:31:11;4.50;;;3.10;;
16484;SDS011;8353;47.856;12.344;2023-12-04T06:33:58;5.87;;;3.67;;
16484;SDS011;8353;47.856;12.344;2023-12-04T06:36:47;7.20;;;4.40;;
16484;SDS011;8353;47.856;12.344;2023-12-04T06:39:34;3.43;;;2.80;;
16484;SDS011;8353;47.856;12.344;2023-12-04T06:42:24;3.20;;;2.70;;
16484;SDS011;8353;47.856;12.344;2023-12-04T06:45:11;4.87;;;3.20;;
16484;SDS011;8353;47.856;12.344;2023-12-04T06:47:59;4.20;;;2.77;;
16484;SDS011;8353;47.856;12.344;2023-12-04T06:50:46;3.50;;;2.53;;
16484;SDS011;8353;47.856;12.344;2023-12-04T06:53:34;5.07;;;3.50;;
16484;SDS011;8353;47.856;12.344;2023-12-04T06:56:21;5.13;;;2.80;;
16484;SDS011;8353;47.856;12.344;2023-12-04T06:59:08;3.40;;;2.53;;
16484;SDS011;8353;47.856;12.344;2023-12-04T07:01:54;3.73;;;2.60;;
16484;SDS011;8353;47.856;12.344;2023-12-04T07:04:41;5.50;;;3.50;;
16484;SDS011;8353;47.856;12.344;2023-12-04T07:07:28;9.07;;;6.23;;
16484;SDS011;8353;47.856;12.344;2023-12-04T07:10:16;12.27;;;9.07;;
16484;SDS011;8353;47.856;12.344;2023-12-04T07:13:03;35.40;;;20.07;;
16484;SDS011;8353;47.856;12.344;2023-12-04T07:15:50;7.63;;;5.70;;
16484;SDS011;8353;47.856;12.344;2023-12-04T07:18:37;9.17;;;7.83;;
16484;SDS011;8353;47.856;12.344;2023-12-04T07:21:24;7.80;;;6.37;;
16484;SDS011;8353;47.856;12.344;2023-12-04T07:24:11;7.00;;;6.30;;
16484;SDS011;8353;47.856;12.344;2023-12-04T07:26:59;7.10;;;5.30;;
16484;SDS011;8353;47.856;12.344;2023-12-04T07:29:46;5.70;;;5.10;;
16484;SDS011;8353;47.856;12.344;2023-12-04T07:32:33;6.07;;;4.70;;
16484;SDS011;8353;47.856;12.344;2023-12-04T07:35:20;4.60;;;3.93;;
16484;SDS011;8353;47.856;12.344;2023-12-04T07:38:07;19.50;;;8.73;;
16484;SDS011;8353;47.856;12.344;2023-12-04T07:40:54;4.13;;;3.73;;
16484;SDS011;8353;47.856;12.344;2023-12-04T07:43:42;5.33;;;3.77;;
16484;SDS011;8353;47.856;12.344;2023-12-04T07:46:29;4.30;;;3.43;;
16484;SDS011;8353;47.856;12.344;2023-12-04T07:49:16;4.10;;;3.27;;
16484;SDS011;8353;47.856;12.344;2023-12-04T07:52:03;12.37;;;8.53;;
16484;SDS011;8353;47.856;12.344;2023-12-04T07:54:50;6.70;;;3.63;;
16484;SDS011;8353;47.856;12.344;2023-12-04T07:57:36;5.23;;;4.30;;
16484;SDS011;8353;47.856;12.344;2023-12-04T08:00:24;4.93;;;3.93;;
16484;SDS011;8353;47.856;12.344;2023-12-04T08:03:11;5.07;;;3.70;;
16484;SDS011;8353;47.856;12.344;2023-12-04T08:05:58;4.67;;;3.60;;
16484;SDS011;8353;47.856;12.344;2023-12-04T08:08:45;5.93;;;3.60;;
16484;SDS011;8353;47.856;12.344;2023-12-04T08:11:32;5.37;;;4.50;;
16484;SDS011;8353;47.856;12.344;2023-12-04T08:14:19;4.47;;;3.30;;
16484;SDS011;8353;47.856;12.344;2023-12-04T08:17:07;4.30;;;3.90;;
16484;SDS011;8353;47.856;12.344;2023-12-04T08:19:54;6.10;;;4.00;;
16484;SDS011;8353;47.856;12.344;2023-12-04T08:22:40;6.73;;;4.83;;
16484;SDS011;8353;47.856;12.344;2023-12-04T08:25:34;4.43;;;3.90;;
16484;SDS011;8353;47.856;12.344;2023-12-04T08:28:23;4.53;;;3.67;;
16484;SDS011;8353;47.856;12.344;2023-12-04T08:31:09;4.77;;;3.07;;
16484;SDS011;8353;47.856;12.344;2023-12-04T08:33:57;4.27;;;3.77;;
16484;SDS011;8353;47.856;12.344;2023-12-04T08:36:44;3.93;;;3.53;;
16484;SDS011;8353;47.856;12.344;2023-12-04T08:39:40;4.87;;;3.87;;
16484;SDS011;8353;47.856;12.344;2023-12-04T08:42:27;5.63;;;4.70;;
16484;SDS011;8353;47.856;12.344;2023-12-04T08:45:13;4.37;;;3.57;;
16484;SDS011;8353;47.856;12.344;2023-12-04T08:48:00;5.90;;;4.40;;
16484;SDS011;8353;47.856;12.344;2023-12-04T08:50:48;7.23;;;4.97;;
16484;SDS011;8353;47.856;12.344;2023-12-04T08:53:35;4.37;;;3.63;;
16484;SDS011;8353;47.856;12.344;2023-12-04T08:56:22;7.03;;;5.73;;
16484;SDS011;8353;47.856;12.344;2023-12-04T08:59:08;4.87;;;4.17;;
16484;SDS011;8353;47.856;12.344;2023-12-04T09:01:55;9.63;;;4.87;;
16484;SDS011;8353;47.856;12.344;2023-12-04T09:04:42;6.63;;;4.70;;
16484;SDS011;8353;47.856;12.344;2023-12-04T09:07:30;6.23;;;3.90;;
16484;SDS011;8353;47.856;12.344;2023-12-04T09:10:16;5.70;;;3.77;;
16484;SDS011;8353;47.856;12.344;2023-12-04T09:13:03;5.43;;;3.90;;
16484;SDS011;8353;47.856;12.344;2023-12-04T09:15:50;4.60;;;3.70;;
16484;SDS011;8353;47.856;12.344;2023-12-04T09:18:37;6.33;;;4.63;;
16484;SDS011;8353;47.856;12.344;2023-12-04T09:21:24;5.23;;;3.90;;
16484;SDS011;8353;47.856;12.344;2023-12-04T09:24:13;6.30;;;4.10;;
16484;SDS011;8353;47.856;12.344;2023-12-04T09:26:59;9.27;;;5.13;;
16484;SDS011;8353;47.856;12.344;2023-12-04T09:29:46;4.57;;;3.50;;
16484;SDS011;8353;47.856;12.344;2023-12-04T09:32:33;5.00;;;3.53;;
16484;SDS011;8353;47.856;12.344;2023-12-04T09:35:19;4.10;;;3.40;;
16484;SDS011;8353;47.856;12.344;2023-12-04T09:38:06;7.83;;;4.97;;
16484;SDS011;8353;47.856;12.344;2023-12-04T09:40:54;5.27;;;3.90;;
16484;SDS011;8353;47.856;12.344;2023-12-04T09:43:47;4.73;;;3.53;;
16484;SDS011;8353;47.856;12.344;2023-12-04T09:46:33;16.80;;;6.77;;
16484;SDS011;8353;47.856;12.344;2023-12-04T09:49:20;6.70;;;4.80;;
16484;SDS011;8353;47.856;12.344;2023-12-04T09:52:08;5.43;;;3.67;;
16484;SDS011;8353;47.856;12.344;2023-12-04T09:54:57;6.80;;;5.57;;
16484;SDS011;8353;47.856;12.344;2023-12-04T09:57:46;5.77;;;4.50;;
16484;SDS011;8353;47.856;12.344;2023-12-04T10:00:34;6.33;;;4.23;;
16484;SDS011;8353;47.856;12.344;2023-12-04T10:03:21;4.37;;;3.20;;
16484;SDS011;8353;47.856;12.344;2023-12-04T10:06:08;5.90;;;4.70;;
16484;SDS011;8353;47.856;12.344;2023-12-04T10:08:55;6.10;;;4.47;;
16484;SDS011;8353;47.856;12.344;2023-12-04T10:11:44;6.67;;;3.83;;
16484;SDS011;8353;47.856;12.344;2023-12-04T10:14:32;5.83;;;4.37;;
16484;SDS011;8353;47.856;12.344;2023-12-04T10:17:19;8.10;;;5.53;;
16484;SDS011;8353;47.856;12.344;2023-12-04T10:20:07;5.33;;;4.27;;
16484;SDS011;8353;47.856;12.344;2023-12-04T10:22:58;5.17;;;4.27;;
16484;SDS011;8353;47.856;12.344;2023-12-04T10:25:46;5.90;;;3.97;;
16484;SDS011;8353;47.856;12.344;2023-12-04T10:28:35;6.43;;;3.83;;
16484;SDS011;8353;47.856;12.344;2023-12-04T10:31:25;6.10;;;5.10;;
16484;SDS011;8353;47.856;12.344;2023-12-04T10:34:12;6.17;;;4.40;;
16484;SDS011;8353;47.856;12.344;2023-12-04T10:36:59;6.83;;;5.00;;
16484;SDS011;8353;47.856;12.344;2023-12-04T10:39:49;7.93;;;5.27;;
16484;SDS011;8353;47.856;12.344;2023-12-04T10:42:39;9.63;;;5.60;;
16484;SDS011;8353;47.856;12.344;2023-12-04T10:45:25;6.87;;;5.57;;
16484;SDS011;8353;47.856;12.344;2023-12-04T10:48:18;7.57;;;5.10;;
16484;SDS011;8353;47.856;12.344;2023-12-04T10:51:06;7.43;;;4.50;;
16484;SDS011;8353;47.856;12.344;2023-12-04T10:53:52;6.63;;;4.90;;
16484;SDS011;8353;47.856;12.344;2023-12-04T10:56:40;7.27;;;4.20;;
16484;SDS011;8353;47.856;12.344;2023-12-04T10:59:31;6.27;;;3.90;;
16484;SDS011;8353;47.856;12.344;2023-12-04T11:02:22;5.10;;;4.07;;
16484;SDS011;8353;47.856;12.344;2023-12-04T11:05:14;6.47;;;4.37;;
16484;SDS011;8353;47.856;12.344;2023-12-04T11:08:05;6.70;;;4.03;;
16484;SDS011;8353;47.856;12.344;2023-12-04T11:10:54;5.70;;;4.00;;
16484;SDS011;8353;47.856;12.344;2023-12-04T11:13:44;5.17;;;3.67;;
16484;SDS011;8353;47.856;12.344;2023-12-04T11:16:37;12.53;;;8.17;;
16484;SDS011;8353;47.856;12.344;2023-12-04T11:19:32;4.77;;;3.73;;
16484;SDS011;8353;47.856;12.344;2023-12-04T11:22:26;3.57;;;3.20;;
16484;SDS011;8353;47.856;12.344;2023-12-04T11:25:13;8.40;;;4.47;;
16484;SDS011;8353;47.856;12.344;2023-12-04T11:28:01;5.70;;;3.80;;
16484;SDS011;8353;47.856;12.344;2023-12-04T11:30:48;4.43;;;3.37;;
16484;SDS011;8353;47.856;12.344;2023-12-04T11:33:36;5.27;;;4.70;;
16484;SDS011;8353;47.856;12.344;2023-12-04T11:36:23;5.03;;;3.67;;
16484;SDS011;8353;47.856;12.344;2023-12-04T11:39:12;4.90;;;3.77;;
16484;SDS011;8353;47.856;12.344;2023-12-04T11:41:59;5.57;;;4.23;;
16484;SDS011;8353;47.856;12.344;2023-12-04T11:44:47;5.80;;;4.40;;
16484;SDS011;8353;47.856;12.344;2023-12-04T11:47:50;4.50;;;3.17;;
16484;SDS011;8353;47.856;12.344;2023-12-04T11:50:38;3.73;;;3.20;;
16484;SDS011;8353;47.856;12.344;2023-12-04T11:53:25;5.13;;;3.00;;
16484;SDS011;8353;47.856;12.344;2023-12-04T11:56:15;7.13;;;5.60;;
16484;SDS011;8353;47.856;12.344;2023-12-04T11:59:02;4.43;;;3.40;;
16484;SDS011;8353;47.856;12.344;2023-12-04T12:01:50;4.83;;;3.07;;
16484;SDS011;8353;47.856;12.344;2023-12-04T12:04:36;4.07;;;3.10;;
16484;SDS011;8353;47.856;12.344;2023-12-04T12:07:23;4.23;;;3.37;;
16484;SDS011;8353;47.856;12.344;2023-12-04T12:10:10;3.37;;;2.87;;
16484;SDS011;8353;47.856;12.344;2023-12-04T12:12:59;6.10;;;4.63;;
16484;SDS011;8353;47.856;12.344;2023-12-04T12:15:46;5.47;;;4.07;;
16484;SDS011;8353;47.856;12.344;2023-12-04T12:18:35;8.40;;;4.70;;
16484;SDS011;8353;47.856;12.344;2023-12-04T12:21:22;3.93;;;3.33;;
16484;SDS011;8353;47.856;12.344;2023-12-04T12:24:11;5.07;;;3.80;;
16484;SDS011;8353;47.856;12.344;2023-12-04T12:26:58;5.13;;;3.50;;
16484;SDS011;8353;47.856;12.344;2023-12-04T12:29:46;5.13;;;3.90;;
16484;SDS011;8353;47.856;12.344;2023-12-04T12:32:32;6.80;;;3.83;;
16484;SDS011;8353;47.856;12.344;2023-12-04T12:35:20;5.63;;;3.70;;
16484;SDS011;8353;47.856;12.344;2023-12-04T12:38:08;6.77;;;3.93;;
16484;SDS011;8353;47.856;12.344;2023-12-04T12:40:55;3.83;;;3.40;;
16484;SDS011;8353;47.856;12.344;2023-12-04T12:43:44;5.57;;;4.03;;
16484;SDS011;8353;47.856;12.344;2023-12-04T12:46:42;5.67;;;4.53;;
16484;SDS011;8353;47.856;12.344;2023-12-04T12:49:32;5.63;;;4.60;;
16484;SDS011;8353;47.856;12.344;2023-12-04T12:52:20;4.07;;;3.47;;
16484;SDS011;8353;47.856;12.344;2023-12-04T12:55:07;7.33;;;5.20;;
16484;SDS011;8353;47.856;12.344;2023-12-04T12:57:55;4.63;;;4.07;;
16484;SDS011;8353;47.856;12.344;2023-12-04T13:00:42;5.40;;;4.10;;
16484;SDS011;8353;47.856;12.344;2023-12-04T13:03:31;7.53;;;4.80;;
16484;SDS011;8353;47.856;12.344;2023-12-04T13:06:18;6.90;;;4.40;;
16484;SDS011;8353;47.856;12.344;2023-12-04T13:09:04;5.47;;;3.60;;
16484;SDS011;8353;47.856;12.344;2023-12-04T13:11:52;4.90;;;4.07;;
16484;SDS011;8353;47.856;12.344;2023-12-04T13:14:38;5.90;;;4.60;;
16484;SDS011;8353;47.856;12.344;2023-12-04T13:17:25;5.73;;;3.73;;
16484;SDS011;8353;47.856;12.344;2023-12-04T13:20:14;5.37;;;4.23;;
16484;SDS011;8353;47.856;12.344;2023-12-04T13:23:02;6.30;;;3.83;;
16484;SDS011;8353;47.856;12.344;2023-12-04T13:25:48;6.57;;;4.83;;
16484;SDS011;8353;47.856;12.344;2023-12-04T13:28:35;5.27;;;4.10;;
16484;SDS011;8353;47.856;12.344;2023-12-04T13:31:22;4.57;;;3.27;;
16484;SDS011;8353;47.856;12.344;2023-12-04T13:34:09;5.10;;;4.27;;
16484;SDS011;8353;47.856;12.344;2023-12-04T13:36:58;7.13;;;5.23;;
16484;SDS011;8353;47.856;12.344;2023-12-04T13:39:45;5.87;;;4.30;;
16484;SDS011;8353;47.856;12.344;2023-12-04T13:42:36;6.37;;;5.17;;
16484;SDS011;8353;47.856;12.344;2023-12-04T13:45:41;5.13;;;4.03;;
16484;SDS011;8353;47.856;12.344;2023-12-04T13:48:29;6.10;;;4.70;;
16484;SDS011;8353;47.856;12.344;2023-12-04T13:51:15;6.63;;;4.67;;
16484;SDS011;8353;47.856;12.344;2023-12-04T13:54:04;5.53;;;4.70;;
16484;SDS011;8353;47.856;12.344;2023-12-04T13:57:00;6.07;;;3.63;;
16484;SDS011;8353;47.856;12.344;2023-12-04T13:59:49;7.43;;;4.93;;
16484;SDS011;8353;47.856;12.344;2023-12-04T14:02:35;8.27;;;6.90;;
16484;SDS011;8353;47.856;12.344;2023-12-04T14:05:28;7.47;;;6.07;;
16484;SDS011;8353;47.856;12.344;2023-12-04T14:08:15;5.53;;;4.30;;
16484;SDS011;8353;47.856;12.344;2023-12-04T14:11:03;6.43;;;5.03;;
16484;SDS011;8353;47.856;12.344;2023-12-04T14:13:51;5.73;;;4.30;;
16484;SDS011;8353;47.856;12.344;2023-12-04T14:16:37;6.13;;;5.23;;
16484;SDS011;8353;47.856;12.344;2023-12-04T14:19:24;6.20;;;5.27;;
16484;SDS011;8353;47.856;12.344;2023-12-04T14:22:11;5.90;;;5.30;;
16484;SDS011;8353;47.856;12.344;2023-12-04T14:24:57;6.87;;;5.00;;
16484;SDS011;8353;47.856;12.344;2023-12-04T14:27:45;8.37;;;6.10;;
16484;SDS011;8353;47.856;12.344;2023-12-04T14:30:33;8.17;;;5.90;;
16484;SDS011;8353;47.856;12.344;2023-12-04T14:33:19;6.60;;;5.37;;
16484;SDS011;8353;47.856;12.344;2023-12-04T14:36:07;8.73;;;7.93;;
16484;SDS011;8353;47.856;12.344;2023-12-04T14:38:54;9.23;;;6.80;;
16484;SDS011;8353;47.856;12.344;2023-12-04T14:41:41;8.87;;;6.40;;
16484;SDS011;8353;47.856;12.344;2023-12-04T14:44:34;8.97;;;5.77;;
16484;SDS011;8353;47.856;12.344;2023-12-04T14:47:21;7.60;;;4.70;;
16484;SDS011;8353;47.856;12.344;2023-12-04T14:50:08;6.43;;;5.30;;
16484;SDS011;8353;47.856;12.344;2023-12-04T14:52:56;7.20;;;5.57;;
16484;SDS011;8353;47.856;12.344;2023-12-04T14:55:48;8.83;;;5.87;;
16484;SDS011;8353;47.856;12.344;2023-12-04T14:58:55;6.57;;;5.10;;
16484;SDS011;8353;47.856;12.344;2023-12-04T15:02:06;8.23;;;5.90;;
16484;SDS011;8353;47.856;12.344;2023-12-04T15:05:13;10.73;;;5.97;;
16484;SDS011;8353;47.856;12.344;2023-12-04T15:08:18;7.27;;;5.53;;
16484;SDS011;8353;47.856;12.344;2023-12-04T15:11:21;7.40;;;4.80;;
16484;SDS011;8353;47.856;12.344;2023-12-04T15:14:30;9.73;;;6.97;;
16484;SDS011;8353;47.856;12.344;2023-12-04T15:17:26;9.73;;;6.40;;
16484;SDS011;8353;47.856;12.344;2023-12-04T15:20:18;8.70;;;6.57;;
16484;SDS011;8353;47.856;12.344;2023-12-04T15:23:17;10.83;;;7.13;;
16484;SDS011;8353;47.856;12.344;2023-12-04T15:26:04;8.50;;;6.60;;
16484;SDS011;8353;47.856;12.344;2023-12-04T15:28:51;8.77;;;6.47;;
16484;SDS011;8353;47.856;12.344;2023-12-04T15:31:38;7.73;;;6.40;;
16484;SDS011;8353;47.856;12.344;2023-12-04T15:34:26;8.17;;;6.40;;
16484;SDS011;8353;47.856;12.344;2023-12-04T15:37:13;8.83;;;6.80;;
16484;SDS011;8353;47.856;12.344;2023-12-04T15:39:59;8.23;;;6.83;;
16484;SDS011;8353;47.856;12.344;2023-12-04T15:42:46;8.27;;;6.40;;
16484;SDS011;8353;47.856;12.344;2023-12-04T15:45:33;7.33;;;5.83;;
16484;SDS011;8353;47.856;12.344;2023-12-04T15:48:19;8.77;;;5.83;;
16484;SDS011;8353;47.856;12.344;2023-12-04T15:51:07;14.67;;;10.00;;
16484;SDS011;8353;47.856;12.344;2023-12-04T15:53:53;7.93;;;6.63;;
16484;SDS011;8353;47.856;12.344;2023-12-04T15:56:40;9.93;;;7.27;;
16484;SDS011;8353;47.856;12.344;2023-12-04T15:59:25;11.40;;;7.63;;
16484;SDS011;8353;47.856;12.344;2023-12-04T16:02:12;11.63;;;8.33;;
16484;SDS011;8353;47.856;12.344;2023-12-04T16:04:58;15.20;;;9.20;;
16484;SDS011;8353;47.856;12.344;2023-12-04T16:07:46;16.37;;;9.50;;
16484;SDS011;8353;47.856;12.344;2023-12-04T16:10:33;11.60;;;7.23;;
16484;SDS011;8353;47.856;12.344;2023-12-04T16:13:21;13.63;;;10.50;;
16484;SDS011;8353;47.856;12.344;2023-12-04T16:16:08;8.97;;;6.70;;
16484;SDS011;8353;47.856;12.344;2023-12-04T16:18:55;13.57;;;8.73;;
16484;SDS011;8353;47.856;12.344;2023-12-04T16:21:41;8.97;;;8.00;;
16484;SDS011;8353;47.856;12.344;2023-12-04T16:24:29;13.20;;;8.47;;
16484;SDS011;8353;47.856;12.344;2023-12-04T16:27:16;11.80;;;8.13;;
16484;SDS011;8353;47.856;12.344;2023-12-04T16:30:04;11.57;;;8.37;;
16484;SDS011;8353;47.856;12.344;2023-12-04T16:32:52;11.40;;;8.03;;
16484;SDS011;8353;47.856;12.344;2023-12-04T16:35:40;10.97;;;6.80;;
16484;SDS011;8353;47.856;12.344;2023-12-04T16:38:27;8.63;;;7.40;;
16484;SDS011;8353;47.856;12.344;2023-12-04T16:41:16;13.53;;;9.30;;
16484;SDS011;8353;47.856;12.344;2023-12-04T16:44:03;8.83;;;6.73;;
16484;SDS011;8353;47.856;12.344;2023-12-04T16:46:51;10.37;;;7.63;;
16484;SDS011;8353;47.856;12.344;2023-12-04T16:56:38;12.47;;;9.80;;